sensor_id;sensor_type;location;lat;lon;timestamp;pressure;altitude;pressure_sealevel;temperature;humidity
68871;BME280;55906;52.278;6.808;2022-08-03T00:00:58;101343.97;;;21.99;56.58
68871;BME280;55906;52.278;6.808;2022-08-03T00:03:25;101336.88;;;21.97;55.98
68871;BME280;55906;52.278;6.808;2022-08-03T00:05:54;101337.78;;;21.96;56.38
68871;BME280;55906;52.278;6.808;2022-08-03T00:08:22;101333.28;;;21.98;56.16
68871;BME280;55906;52.278;6.808;2022-08-03T00:10:48;101327.00;;;21.99;55.96
68871;BME280;55906;52.278;6.808;2022-08-03T00:13:17;101327.88;;;22.01;55.71
68871;BME280;55906;52.278;6.808;2022-08-03T00:15:44;101327.88;;;22.01;56.04
68871;BME280;55906;52.278;6.808;2022-08-03T00:18:10;101326.09;;;22.00;55.95
68871;BME280;55906;52.278;6.808;2022-08-03T00:20:37;101328.81;;;21.97;56.16
68871;BME280;55906;52.278;6.808;2022-08-03T00:23:04;101331.56;;;21.94;56.45
68871;BME280;55906;52.278;6.808;2022-08-03T00:25:33;101329.81;;;21.91;56.67
68871;BME280;55906;52.278;6.808;2022-08-03T00:28:00;101329.88;;;21.85;56.83
68871;BME280;55906;52.278;6.808;2022-08-03T00:30:26;101334.38;;;21.82;57.20
68871;BME280;55906;52.278;6.808;2022-08-03T00:32:53;101333.50;;;21.81;57.42
68871;BME280;55906;52.278;6.808;2022-08-03T00:35:22;101327.31;;;21.78;57.64
68871;BME280;55906;52.278;6.808;2022-08-03T00:37:49;101328.28;;;21.72;57.50
68871;BME280;55906;52.278;6.808;2022-08-03T00:40:16;101322.06;;;21.68;58.11
68871;BME280;55906;52.278;6.808;2022-08-03T00:42:49;101327.47;;;21.65;58.90
68871;BME280;55906;52.278;6.808;2022-08-03T00:45:19;101318.59;;;21.60;58.07
68871;BME280;55906;52.278;6.808;2022-08-03T00:47:46;101318.66;;;21.56;58.15
68871;BME280;55906;52.278;6.808;2022-08-03T00:50:13;101323.16;;;21.52;58.81
68871;BME280;55906;52.278;6.808;2022-08-03T00:52:40;101330.31;;;21.50;58.35
68871;BME280;55906;52.278;6.808;2022-08-03T00:55:08;101328.56;;;21.48;58.92
68871;BME280;55906;52.278;6.808;2022-08-03T00:57:35;101321.50;;;21.42;58.73
68871;BME280;55906;52.278;6.808;2022-08-03T01:00:04;101320.66;;;21.37;59.20
68871;BME280;55906;52.278;6.808;2022-08-03T01:02:31;101317.13;;;21.33;59.27
68871;BME280;55906;52.278;6.808;2022-08-03T01:04:58;101322.53;;;21.29;59.16
68871;BME280;55906;52.278;6.808;2022-08-03T01:07:35;101317.19;;;21.27;60.66
68871;BME280;55906;52.278;6.808;2022-08-03T01:10:11;101317.22;;;21.21;60.93
68871;BME280;55906;52.278;6.808;2022-08-03T01:12:42;101314.63;;;21.15;60.49
68871;BME280;55906;52.278;6.808;2022-08-03T01:15:21;101313.75;;;21.12;61.18
68871;BME280;55906;52.278;6.808;2022-08-03T01:17:55;101312.94;;;21.06;60.88
68871;BME280;55906;52.278;6.808;2022-08-03T01:20:24;101318.31;;;21.02;60.68
68871;BME280;55906;52.278;6.808;2022-08-03T01:26:04;101313.06;;;20.91;62.29
68871;BME280;55906;52.278;6.808;2022-08-03T01:28:47;101315.81;;;20.84;62.67
68871;BME280;55906;52.278;6.808;2022-08-03T01:31:26;101319.41;;;20.78;61.96
68871;BME280;55906;52.278;6.808;2022-08-03T01:33:57;101310.53;;;20.74;61.31
68871;BME280;55906;52.278;6.808;2022-08-03T01:36:28;101310.53;;;20.73;61.70
68871;BME280;55906;52.278;6.808;2022-08-03T01:38:59;101316.81;;;20.70;61.59
68871;BME280;55906;52.278;6.808;2022-08-03T01:41:29;101312.34;;;20.69;61.79
68871;BME280;55906;52.278;6.808;2022-08-03T01:43:58;101307.94;;;20.65;61.91
68871;BME280;55906;52.278;6.808;2022-08-03T01:46:29;101310.63;;;20.64;62.08
68871;BME280;55906;52.278;6.808;2022-08-03T01:48:57;101307.97;;;20.61;62.13
68871;BME280;55906;52.278;6.808;2022-08-03T01:51:25;101309.78;;;20.57;62.11
68871;BME280;55906;52.278;6.808;2022-08-03T01:53:53;101308.91;;;20.54;62.13
68871;BME280;55906;52.278;6.808;2022-08-03T01:59:43;101294.75;;;20.41;62.45
68871;BME280;55906;52.278;6.808;2022-08-03T02:02:13;101292.97;;;20.41;63.05
68871;BME280;55906;52.278;6.808;2022-08-03T02:04:42;101299.22;;;20.39;63.02
68871;BME280;55906;52.278;6.808;2022-08-03T02:07:11;101299.22;;;20.37;62.98
68871;BME280;55906;52.278;6.808;2022-08-03T02:09:40;101301.03;;;20.34;62.83
68871;BME280;55906;52.278;6.808;2022-08-03T02:12:10;101289.47;;;20.30;63.07
68871;BME280;55906;52.278;6.808;2022-08-03T02:14:39;101302.81;;;20.32;63.59
68871;BME280;55906;52.278;6.808;2022-08-03T02:17:06;101300.19;;;20.27;63.43
68871;BME280;55906;52.278;6.808;2022-08-03T02:19:35;101295.72;;;20.26;63.69
68871;BME280;55906;52.278;6.808;2022-08-03T02:22:04;101291.28;;;20.25;63.51
68871;BME280;55906;52.278;6.808;2022-08-03T02:24:31;101295.78;;;20.19;63.76
68871;BME280;55906;52.278;6.808;2022-08-03T02:26:58;101303.84;;;20.14;64.39
68871;BME280;55906;52.278;6.808;2022-08-03T02:29:31;101308.28;;;20.12;64.80
68871;BME280;55906;52.278;6.808;2022-08-03T02:31:59;101301.19;;;20.11;64.94
68871;BME280;55906;52.278;6.808;2022-08-03T02:34:30;101295.84;;;20.09;64.98
68871;BME280;55906;52.278;6.808;2022-08-03T02:37:00;101302.06;;;20.10;65.23
68871;BME280;55906;52.278;6.808;2022-08-03T02:39:30;101294.97;;;20.09;65.09
68871;BME280;55906;52.278;6.808;2022-08-03T02:41:59;101302.09;;;20.07;65.16
68871;BME280;55906;52.278;6.808;2022-08-03T02:44:29;101291.44;;;20.02;65.35
68871;BME280;55906;52.278;6.808;2022-08-03T02:47:02;101290.56;;;20.02;65.42
68871;BME280;55906;52.278;6.808;2022-08-03T02:49:30;101287.00;;;20.00;65.72
68871;BME280;55906;52.278;6.808;2022-08-03T02:51:58;101293.22;;;20.02;65.45
68871;BME280;55906;52.278;6.808;2022-08-03T02:54:27;101287.88;;;20.02;65.97
68871;BME280;55906;52.278;6.808;2022-08-03T02:56:55;101286.09;;;20.01;65.78
68871;BME280;55906;52.278;6.808;2022-08-03T02:59:22;101287.00;;;19.98;65.94
68871;BME280;55906;52.278;6.808;2022-08-03T03:01:50;101291.47;;;19.98;66.00
68871;BME280;55906;52.278;6.808;2022-08-03T03:04:18;101290.59;;;19.97;66.12
68871;BME280;55906;52.278;6.808;2022-08-03T03:06:47;101291.47;;;19.95;66.24
68871;BME280;55906;52.278;6.808;2022-08-03T03:09:15;101279.94;;;19.91;66.05
68871;BME280;55906;52.278;6.808;2022-08-03T03:11:44;101287.06;;;19.89;66.54
68871;BME280;55906;52.278;6.808;2022-08-03T03:14:12;101284.41;;;19.86;66.61
68871;BME280;55906;52.278;6.808;2022-08-03T03:16:40;101281.78;;;19.81;66.69
68871;BME280;55906;52.278;6.808;2022-08-03T03:19:11;101283.53;;;19.83;66.91
68871;BME280;55906;52.278;6.808;2022-08-03T03:21:38;101280.00;;;19.79;67.10
68871;BME280;55906;52.278;6.808;2022-08-03T03:24:06;101279.13;;;19.78;67.31
68871;BME280;55906;52.278;6.808;2022-08-03T03:26:34;101281.81;;;19.75;67.25
68871;BME280;55906;52.278;6.808;2022-08-03T03:29:03;101280.91;;;19.73;67.47
68871;BME280;55906;52.278;6.808;2022-08-03T03:31:30;101279.13;;;19.74;67.35
68871;BME280;55906;52.278;6.808;2022-08-03T03:33:58;101282.72;;;19.70;67.51
68871;BME280;55906;52.278;6.808;2022-08-03T03:36:25;101283.63;;;19.67;67.97
68871;BME280;55906;52.278;6.808;2022-08-03T03:38:51;101280.06;;;19.67;68.17
68871;BME280;55906;52.278;6.808;2022-08-03T03:41:18;101279.19;;;19.65;68.19
68871;BME280;55906;52.278;6.808;2022-08-03T03:43:45;101282.75;;;19.64;68.76
68871;BME280;55906;52.278;6.808;2022-08-03T03:46:13;101287.19;;;19.63;68.71
68871;BME280;55906;52.278;6.808;2022-08-03T03:48:40;101281.88;;;19.63;68.95
68871;BME280;55906;52.278;6.808;2022-08-03T03:51:06;101283.66;;;19.63;68.99
68871;BME280;55906;52.278;6.808;2022-08-03T03:53:33;101287.19;;;19.63;69.08
68871;BME280;55906;52.278;6.808;2022-08-03T03:56:00;101285.41;;;19.64;69.15
68871;BME280;55906;52.278;6.808;2022-08-03T03:58:26;101274.75;;;19.64;69.25
68871;BME280;55906;52.278;6.808;2022-08-03T04:00:53;101284.53;;;19.60;70.94
68871;BME280;55906;52.278;6.808;2022-08-03T04:03:21;101289.88;;;19.63;69.68
68871;BME280;55906;52.278;6.808;2022-08-03T04:05:48;101287.22;;;19.60;69.96
68871;BME280;55906;52.278;6.808;2022-08-03T04:08:32;101288.09;;;19.62;70.11
68871;BME280;55906;52.278;6.808;2022-08-03T04:11:20;101285.44;;;19.61;71.44
68871;BME280;55906;52.278;6.808;2022-08-03T04:13:50;101287.19;;;19.63;71.07
68871;BME280;55906;52.278;6.808;2022-08-03T04:16:20;101279.19;;;19.63;71.08
68871;BME280;55906;52.278;6.808;2022-08-03T04:18:52;101286.31;;;19.64;71.90
68871;BME280;55906;52.278;6.808;2022-08-03T04:21:21;101279.19;;;19.63;71.58
68871;BME280;55906;52.278;6.808;2022-08-03T04:23:53;101283.63;;;19.66;71.41
68871;BME280;55906;52.278;6.808;2022-08-03T04:26:21;101278.31;;;19.61;72.28
68871;BME280;55906;52.278;6.808;2022-08-03T04:28:50;101281.84;;;19.65;72.06
68871;BME280;55906;52.278;6.808;2022-08-03T04:31:21;101291.63;;;19.69;72.07
68871;BME280;55906;52.278;6.808;2022-08-03T04:33:50;101286.28;;;19.67;73.20
68871;BME280;55906;52.278;6.808;2022-08-03T04:36:20;101282.72;;;19.71;72.90
68871;BME280;55906;52.278;6.808;2022-08-03T04:38:57;101287.16;;;19.75;72.96
68871;BME280;55906;52.278;6.808;2022-08-03T04:41:27;101293.38;;;19.77;72.46
68871;BME280;55906;52.278;6.808;2022-08-03T04:43:57;101286.22;;;19.81;72.23
68871;BME280;55906;52.278;6.808;2022-08-03T04:46:26;101295.09;;;19.85;72.35
68871;BME280;55906;52.278;6.808;2022-08-03T04:48:55;101290.63;;;19.90;71.85
68871;BME280;55906;52.278;6.808;2022-08-03T04:51:22;101297.72;;;19.95;72.39
68871;BME280;55906;52.278;6.808;2022-08-03T04:53:50;101290.56;;;20.00;72.11
68871;BME280;55906;52.278;6.808;2022-08-03T04:56:16;101297.66;;;20.06;71.96
68871;BME280;55906;52.278;6.808;2022-08-03T04:58:43;101294.97;;;20.09;72.53
68871;BME280;55906;52.278;6.808;2022-08-03T05:01:09;101286.00;;;20.14;73.31
68871;BME280;55906;52.278;6.808;2022-08-03T05:03:36;101284.22;;;20.18;73.38
68871;BME280;55906;52.278;6.808;2022-08-03T05:06:04;101289.50;;;20.26;72.75
68871;BME280;55906;52.278;6.808;2022-08-03T05:08:31;101292.13;;;20.30;72.98
68871;BME280;55906;52.278;6.808;2022-08-03T05:10:58;101290.31;;;20.37;72.70
68871;BME280;55906;52.278;6.808;2022-08-03T05:13:24;101296.53;;;20.42;72.66
68871;BME280;55906;52.278;6.808;2022-08-03T05:15:51;101296.47;;;20.50;72.82
68871;BME280;55906;52.278;6.808;2022-08-03T05:18:17;101293.75;;;20.54;72.67
68871;BME280;55906;52.278;6.808;2022-08-03T05:20:44;101296.38;;;20.62;72.27
68871;BME280;55906;52.278;6.808;2022-08-03T05:23:12;101293.63;;;20.69;72.25
68871;BME280;55906;52.278;6.808;2022-08-03T05:25:39;101290.91;;;20.74;72.50
68871;BME280;55906;52.278;6.808;2022-08-03T05:28:05;101287.31;;;20.78;72.96
68871;BME280;55906;52.278;6.808;2022-08-03T05:30:32;101299.69;;;20.91;72.51
68871;BME280;55906;52.278;6.808;2022-08-03T05:32:58;101294.28;;;20.97;72.19
68871;BME280;55906;52.278;6.808;2022-08-03T05:35:25;101298.63;;;21.09;71.39
68871;BME280;55906;52.278;6.808;2022-08-03T05:37:53;101294.94;;;21.22;71.68
68871;BME280;55906;52.278;6.808;2022-08-03T05:40:21;101296.66;;;21.29;70.93
68871;BME280;55906;52.278;6.808;2022-08-03T05:42:47;101301.00;;;21.38;70.71
68871;BME280;55906;52.278;6.808;2022-08-03T05:45:15;101306.28;;;21.44;70.87
68871;BME280;55906;52.278;6.808;2022-08-03T05:47:42;101307.97;;;21.54;70.31
68871;BME280;55906;52.278;6.808;2022-08-03T05:50:09;101303.44;;;21.58;70.32
68871;BME280;55906;52.278;6.808;2022-08-03T05:52:36;101313.19;;;21.65;69.89
68871;BME280;55906;52.278;6.808;2022-08-03T05:55:04;101314.91;;;21.70;69.57
68871;BME280;55906;52.278;6.808;2022-08-03T05:57:32;101304.97;;;21.77;69.46
68871;BME280;55906;52.278;6.808;2022-08-03T06:00:00;101312.91;;;21.85;69.08
68871;BME280;55906;52.278;6.808;2022-08-03T06:02:28;101315.53;;;21.89;68.93
68871;BME280;55906;52.278;6.808;2022-08-03T06:04:55;101311.88;;;21.96;68.50
68871;BME280;55906;52.278;6.808;2022-08-03T06:07:21;101313.56;;;22.02;68.53
68871;BME280;55906;52.278;6.808;2022-08-03T06:09:48;101311.75;;;22.07;68.56
68871;BME280;55906;52.278;6.808;2022-08-03T06:12:15;101318.81;;;22.16;68.35
68871;BME280;55906;52.278;6.808;2022-08-03T06:14:43;101312.47;;;22.21;68.34
68871;BME280;55906;52.278;6.808;2022-08-03T06:17:09;101307.00;;;22.27;68.12
68871;BME280;55906;52.278;6.808;2022-08-03T06:19:36;101316.69;;;22.38;67.72
68871;BME280;55906;52.278;6.808;2022-08-03T06:22:03;101316.53;;;22.47;67.79
68871;BME280;55906;52.278;6.808;2022-08-03T06:24:29;101318.22;;;22.52;67.46
68871;BME280;55906;52.278;6.808;2022-08-03T06:26:57;101320.84;;;22.57;67.79
68871;BME280;55906;52.278;6.808;2022-08-03T06:29:23;101333.25;;;22.64;67.02
68871;BME280;55906;52.278;6.808;2022-08-03T06:31:51;101328.69;;;22.69;67.09
68871;BME280;55906;52.278;6.808;2022-08-03T06:34:18;101320.56;;;22.74;66.79
68871;BME280;55906;52.278;6.808;2022-08-03T06:36:44;101324.03;;;22.82;66.45
68871;BME280;55906;52.278;6.808;2022-08-03T06:39:13;101325.66;;;22.90;66.20
68871;BME280;55906;52.278;6.808;2022-08-03T06:41:39;101321.84;;;23.04;65.69
68871;BME280;55906;52.278;6.808;2022-08-03T06:44:06;101326.13;;;23.14;65.35
68871;BME280;55906;52.278;6.808;2022-08-03T06:46:32;101340.38;;;23.17;65.06
68871;BME280;55906;52.278;6.808;2022-08-03T06:49:00;101331.41;;;23.18;65.00
68871;BME280;55906;52.278;6.808;2022-08-03T06:51:27;101335.97;;;23.15;64.96
68871;BME280;55906;52.278;6.808;2022-08-03T06:53:54;101347.50;;;23.20;64.65
68871;BME280;55906;52.278;6.808;2022-08-03T06:56:20;101338.63;;;23.16;64.89
68871;BME280;55906;52.278;6.808;2022-08-03T06:58:47;101336.84;;;23.15;64.59
68871;BME280;55906;52.278;6.808;2022-08-03T07:01:13;101334.00;;;23.24;64.54
68871;BME280;55906;52.278;6.808;2022-08-03T07:03:40;101336.47;;;23.35;64.30
68871;BME280;55906;52.278;6.808;2022-08-03T07:06:08;101347.84;;;23.49;63.44
68871;BME280;55906;52.278;6.808;2022-08-03T07:08:35;101342.41;;;23.54;63.22
68871;BME280;55906;52.278;6.808;2022-08-03T07:11:01;101341.19;;;23.70;62.58
68871;BME280;55906;52.278;6.808;2022-08-03T07:13:28;101341.91;;;23.78;61.92
68871;BME280;55906;52.278;6.808;2022-08-03T07:15:55;101330.03;;;23.90;61.66
68871;BME280;55906;52.278;6.808;2022-08-03T07:18:21;101330.56;;;24.06;61.15
68871;BME280;55906;52.278;6.808;2022-08-03T07:20:48;101335.63;;;24.19;60.78
68871;BME280;55906;52.278;6.808;2022-08-03T07:23:16;101335.47;;;24.29;60.31
68871;BME280;55906;52.278;6.808;2022-08-03T07:25:43;101327.22;;;24.36;59.42
68871;BME280;55906;52.278;6.808;2022-08-03T07:28:09;101338.56;;;24.49;59.12
68871;BME280;55906;52.278;6.808;2022-08-03T07:30:36;101331.47;;;24.45;58.72
68871;BME280;55906;52.278;6.808;2022-08-03T07:33:03;101334.03;;;24.51;58.26
68871;BME280;55906;52.278;6.808;2022-08-03T07:35:30;101335.44;;;24.66;58.20
68871;BME280;55906;52.278;6.808;2022-08-03T07:37:56;101333.50;;;24.74;57.50
68871;BME280;55906;52.278;6.808;2022-08-03T07:40:26;101333.34;;;24.80;56.86
68871;BME280;55906;52.278;6.808;2022-08-03T07:42:53;101324.91;;;24.94;56.98
68871;BME280;55906;52.278;6.808;2022-08-03T07:45:20;101329.19;;;25.02;56.07
68871;BME280;55906;52.278;6.808;2022-08-03T07:47:47;101337.03;;;25.11;55.44
68871;BME280;55906;52.278;6.808;2022-08-03T07:50:14;101330.91;;;25.05;55.87
68871;BME280;55906;52.278;6.808;2022-08-03T07:52:40;101336.06;;;25.14;55.88
68871;BME280;55906;52.278;6.808;2022-08-03T07:55:19;101331.34;;;25.22;55.19
68871;BME280;55906;52.278;6.808;2022-08-03T07:57:58;101332.78;;;25.35;54.49
68871;BME280;55906;52.278;6.808;2022-08-03T08:00:25;101329.16;;;25.36;54.47
68871;BME280;55906;52.278;6.808;2022-08-03T08:02:51;101332.50;;;25.44;54.79
68871;BME280;55906;52.278;6.808;2022-08-03T08:05:18;101331.69;;;25.42;54.49
68871;BME280;55906;52.278;6.808;2022-08-03T08:07:45;101336.72;;;25.55;53.54
68871;BME280;55906;52.278;6.808;2022-08-03T08:10:11;101339.13;;;25.65;54.12
68871;BME280;55906;52.278;6.808;2022-08-03T08:12:38;101333.25;;;25.82;53.66
68871;BME280;55906;52.278;6.808;2022-08-03T08:15:07;101331.34;;;25.86;52.07
68871;BME280;55906;52.278;6.808;2022-08-03T08:17:40;101332.78;;;25.97;52.08
68871;BME280;55906;52.278;6.808;2022-08-03T08:20:08;101334.50;;;26.00;52.11
68871;BME280;55906;52.278;6.808;2022-08-03T08:22:35;101338.31;;;25.93;52.11
68871;BME280;55906;52.278;6.808;2022-08-03T08:25:02;101336.25;;;26.02;52.31
68871;BME280;55906;52.278;6.808;2022-08-03T08:27:29;101339.69;;;26.07;51.83
68871;BME280;55906;52.278;6.808;2022-08-03T08:29:55;101340.44;;;26.12;51.53
68871;BME280;55906;52.278;6.808;2022-08-03T08:32:24;101344.72;;;26.20;51.30
68871;BME280;55906;52.278;6.808;2022-08-03T08:34:50;101342.63;;;26.29;51.44
68871;BME280;55906;52.278;6.808;2022-08-03T08:37:17;101333.47;;;26.35;50.59
68871;BME280;55906;52.278;6.808;2022-08-03T08:39:44;101333.28;;;26.41;51.17
68871;BME280;55906;52.278;6.808;2022-08-03T08:42:10;101334.63;;;26.54;50.81
68871;BME280;55906;52.278;6.808;2022-08-03T08:44:37;101337.81;;;26.67;50.28
68871;BME280;55906;52.278;6.808;2022-08-03T08:47:04;101338.19;;;26.83;49.63
68871;BME280;55906;52.278;6.808;2022-08-03T08:49:35;101338.75;;;26.92;49.29
68871;BME280;55906;52.278;6.808;2022-08-03T08:52:04;101331.25;;;27.02;48.75
68871;BME280;55906;52.278;6.808;2022-08-03T08:54:35;101334.44;;;27.13;48.71
68871;BME280;55906;52.278;6.808;2022-08-03T08:57:06;101339.78;;;27.41;47.77
68871;BME280;55906;52.278;6.808;2022-08-03T08:59:33;101339.38;;;27.52;47.24
68871;BME280;55906;52.278;6.808;2022-08-03T09:02:00;101346.97;;;27.67;46.20
68871;BME280;55906;52.278;6.808;2022-08-03T09:04:27;101337.91;;;27.91;46.03
68871;BME280;55906;52.278;6.808;2022-08-03T09:06:56;101336.13;;;28.14;44.39
68871;BME280;55906;52.278;6.808;2022-08-03T09:09:23;101342.25;;;28.42;44.30
68871;BME280;55906;52.278;6.808;2022-08-03T09:11:49;101333.19;;;28.65;43.48
68871;BME280;55906;52.278;6.808;2022-08-03T09:14:16;101334.66;;;29.16;42.01
68871;BME280;55906;52.278;6.808;2022-08-03T09:16:56;101340.03;;;29.97;40.46
68871;BME280;55906;52.278;6.808;2022-08-03T09:19:26;101333.50;;;30.39;39.86
68871;BME280;55906;52.278;6.808;2022-08-03T09:22:08;101330.69;;;31.12;38.00
68871;BME280;55906;52.278;6.808;2022-08-03T09:24:35;101325.59;;;31.41;37.79
68871;BME280;55906;52.278;6.808;2022-08-03T09:27:05;101342.72;;;31.43;35.87
68871;BME280;55906;52.278;6.808;2022-08-03T09:29:33;101334.19;;;31.66;35.31
68871;BME280;55906;52.278;6.808;2022-08-03T09:32:02;101339.97;;;31.93;34.91
68871;BME280;55906;52.278;6.808;2022-08-03T09:34:29;101329.56;;;32.49;34.64
68871;BME280;55906;52.278;6.808;2022-08-03T09:36:57;101332.38;;;32.31;34.64
68871;BME280;55906;52.278;6.808;2022-08-03T09:39:28;101338.03;;;32.60;33.65
68871;BME280;55906;52.278;6.808;2022-08-03T09:42:06;101327.66;;;32.82;32.86
68871;BME280;55906;52.278;6.808;2022-08-03T09:44:33;101334.66;;;33.60;31.92
68871;BME280;55906;52.278;6.808;2022-08-03T09:47:01;101338.38;;;33.73;32.37
68871;BME280;55906;52.278;6.808;2022-08-03T09:49:27;101337.25;;;33.92;31.41
68871;BME280;55906;52.278;6.808;2022-08-03T09:51:54;101317.78;;;33.68;31.51
68871;BME280;55906;52.278;6.808;2022-08-03T09:54:29;101330.63;;;33.96;30.40
68871;BME280;55906;52.278;6.808;2022-08-03T09:56:57;101325.09;;;34.39;30.59
68871;BME280;55906;52.278;6.808;2022-08-03T09:59:25;101316.72;;;34.81;30.60
68871;BME280;55906;52.278;6.808;2022-08-03T10:01:52;101318.34;;;35.11;29.29
68871;BME280;55906;52.278;6.808;2022-08-03T10:04:19;101328.19;;;35.01;29.13
68871;BME280;55906;52.278;6.808;2022-08-03T10:07:01;101315.91;;;34.93;29.34
68871;BME280;55906;52.278;6.808;2022-08-03T10:09:30;101319.44;;;35.08;28.78
68871;BME280;55906;52.278;6.808;2022-08-03T10:11:57;101321.03;;;35.12;28.63
68871;BME280;55906;52.278;6.808;2022-08-03T10:14:32;101320.75;;;35.42;28.81
68871;BME280;55906;52.278;6.808;2022-08-03T10:16:59;101328.47;;;35.23;28.44
68871;BME280;55906;52.278;6.808;2022-08-03T10:19:25;101324.13;;;35.33;27.93
68871;BME280;55906;52.278;6.808;2022-08-03T10:21:54;101327.31;;;35.65;27.47
68871;BME280;55906;52.278;6.808;2022-08-03T10:24:24;101323.06;;;35.86;27.42
68871;BME280;55906;52.278;6.808;2022-08-03T10:26:59;101329.16;;;36.03;26.94
68871;BME280;55906;52.278;6.808;2022-08-03T10:29:28;101322.50;;;35.69;27.87
68871;BME280;55906;52.278;6.808;2022-08-03T10:31:59;101322.13;;;36.11;26.98
68871;BME280;55906;52.278;6.808;2022-08-03T10:34:33;101311.72;;;36.04;27.70
68871;BME280;55906;52.278;6.808;2022-08-03T10:37:08;101299.28;;;36.60;26.73
68871;BME280;55906;52.278;6.808;2022-08-03T10:39:35;101308.91;;;36.90;25.86
68871;BME280;55906;52.278;6.808;2022-08-03T10:42:04;101306.69;;;36.47;26.17
68871;BME280;55906;52.278;6.808;2022-08-03T10:44:32;101298.66;;;36.80;25.97
68871;BME280;55906;52.278;6.808;2022-08-03T10:47:03;101300.16;;;37.20;25.20
68871;BME280;55906;52.278;6.808;2022-08-03T10:49:30;101290.66;;;37.70;24.73
68871;BME280;55906;52.278;6.808;2022-08-03T10:51:57;101294.41;;;38.02;24.54
68871;BME280;55906;52.278;6.808;2022-08-03T10:54:41;101288.25;;;38.10;24.20
68871;BME280;55906;52.278;6.808;2022-08-03T11:00:18;101287.03;;;37.92;24.85
68871;BME280;55906;52.278;6.808;2022-08-03T11:03:08;101287.66;;;37.95;24.06
68871;BME280;55906;52.278;6.808;2022-08-03T11:05:38;101293.41;;;37.92;24.65
68871;BME280;55906;52.278;6.808;2022-08-03T11:08:23;101285.97;;;38.37;23.93
68871;BME280;55906;52.278;6.808;2022-08-03T11:10:51;101282.28;;;38.59;23.39
68871;BME280;55906;52.278;6.808;2022-08-03T11:13:21;101288.75;;;38.69;23.24
68871;BME280;55906;52.278;6.808;2022-08-03T11:15:50;101277.16;;;38.55;23.58
68871;BME280;55906;52.278;6.808;2022-08-03T11:18:17;101287.19;;;39.20;23.03
68871;BME280;55906;52.278;6.808;2022-08-03T11:20:45;101273.09;;;38.38;23.35
68871;BME280;55906;52.278;6.808;2022-08-03T11:23:13;101270.91;;;38.21;23.67
68871;BME280;55906;52.278;6.808;2022-08-03T11:26:10;101273.22;;;39.00;22.94
68871;BME280;55906;52.278;6.808;2022-08-03T11:28:39;101264.94;;;39.32;22.38
68871;BME280;55906;52.278;6.808;2022-08-03T11:34:21;101261.06;;;39.65;22.64
68871;BME280;55906;52.278;6.808;2022-08-03T11:37:22;101264.84;;;39.74;21.55
68871;BME280;55906;52.278;6.808;2022-08-03T11:39:52;101262.81;;;40.07;21.90
68871;BME280;55906;52.278;6.808;2022-08-03T11:42:38;101274.16;;;39.83;21.25
68871;BME280;55906;52.278;6.808;2022-08-03T11:45:07;101275.63;;;39.87;20.68
68871;BME280;55906;52.278;6.808;2022-08-03T11:47:38;101264.72;;;40.16;20.65
68871;BME280;55906;52.278;6.808;2022-08-03T11:50:06;101271.38;;;40.13;20.74
68871;BME280;55906;52.278;6.808;2022-08-03T11:52:35;101270.03;;;40.57;20.80
68871;BME280;55906;52.278;6.808;2022-08-03T11:55:08;101261.00;;;41.13;19.91
68871;BME280;55906;52.278;6.808;2022-08-03T11:57:35;101263.06;;;40.73;20.21
68871;BME280;55906;52.278;6.808;2022-08-03T12:00:16;101271.91;;;41.15;20.35
68871;BME280;55906;52.278;6.808;2022-08-03T12:02:53;101258.84;;;40.59;20.08
68871;BME280;55906;52.278;6.808;2022-08-03T12:05:20;101264.22;;;40.41;20.38
68871;BME280;55906;52.278;6.808;2022-08-03T12:07:47;101269.63;;;40.81;20.27
68871;BME280;55906;52.278;6.808;2022-08-03T12:10:14;101261.81;;;40.27;20.30
68871;BME280;55906;52.278;6.808;2022-08-03T12:12:40;101265.97;;;40.61;19.95
68871;BME280;55906;52.278;6.808;2022-08-03T12:15:09;101252.31;;;40.70;19.98
68871;BME280;55906;52.278;6.808;2022-08-03T12:17:38;101263.94;;;40.73;19.92
68871;BME280;55906;52.278;6.808;2022-08-03T12:20:07;101257.72;;;40.81;19.42
68871;BME280;55906;52.278;6.808;2022-08-03T12:22:35;101260.66;;;41.45;19.33
68871;BME280;55906;52.278;6.808;2022-08-03T12:25:03;101260.28;;;41.77;18.83
68871;BME280;55906;52.278;6.808;2022-08-03T12:27:30;101259.13;;;42.25;18.75
68871;BME280;55906;52.278;6.808;2022-08-03T12:29:58;101253.97;;;42.93;17.28
68871;BME280;55906;52.278;6.808;2022-08-03T12:32:26;101262.28;;;42.12;18.16
68871;BME280;55906;52.278;6.808;2022-08-03T12:34:55;101260.75;;;41.53;18.65
68871;BME280;55906;52.278;6.808;2022-08-03T12:37:25;101277.06;;;41.66;18.92
68871;BME280;55906;52.278;6.808;2022-08-03T12:39:52;101246.16;;;42.08;17.89
68871;BME280;55906;52.278;6.808;2022-08-03T12:42:19;101250.69;;;42.27;18.08
68871;BME280;55906;52.278;6.808;2022-08-03T12:44:46;101251.34;;;42.56;18.00
68871;BME280;55906;52.278;6.808;2022-08-03T12:47:15;101238.44;;;42.65;17.48
68871;BME280;55906;52.278;6.808;2022-08-03T12:49:45;101239.31;;;42.47;17.74
68871;BME280;55906;52.278;6.808;2022-08-03T12:52:13;101235.19;;;42.87;17.21
68871;BME280;55906;52.278;6.808;2022-08-03T12:54:40;101247.19;;;42.42;17.50
68871;BME280;55906;52.278;6.808;2022-08-03T12:57:09;101247.22;;;42.60;16.85
68871;BME280;55906;52.278;6.808;2022-08-03T12:59:38;101245.25;;;42.88;16.31
68871;BME280;55906;52.278;6.808;2022-08-03T13:02:13;101256.25;;;42.98;16.51
68871;BME280;55906;52.278;6.808;2022-08-03T13:04:40;101246.03;;;42.98;16.26
68871;BME280;55906;52.278;6.808;2022-08-03T13:07:08;101247.03;;;43.15;16.78
68871;BME280;55906;52.278;6.808;2022-08-03T13:09:42;101242.88;;;43.71;16.21
68871;BME280;55906;52.278;6.808;2022-08-03T13:12:10;101244.03;;;43.60;16.02